sensor_id;sensor_type;location;lat;lon;timestamp;temperature;humidity
21540;DHT22;10931;52.164;5.518;2023-11-19T00:59:37;14.70;79.10
21540;DHT22;10931;52.164;5.518;2023-11-19T01:02:28;14.70;79.10
21540;DHT22;10931;52.164;5.518;2023-11-19T01:05:13;14.70;79.10
21540;DHT22;10931;52.164;5.518;2023-11-19T01:07:50;14.70;79.10
21540;DHT22;10931;52.164;5.518;2023-11-19T01:10:23;14.70;79.00
21540;DHT22;10931;52.164;5.518;2023-11-19T01:13:02;14.70;79.10
21540;DHT22;10931;52.164;5.518;2023-11-19T01:15:33;14.70;79.00
21540;DHT22;10931;52.164;5.518;2023-11-19T01:18:09;14.70;79.00
21540;DHT22;10931;52.164;5.518;2023-11-19T01:21:16;14.70;79.10
21540;DHT22;10931;52.164;5.518;2023-11-19T01:23:52;14.70;79.00
21540;DHT22;10931;52.164;5.518;2023-11-19T01:26:35;14.70;79.00
21540;DHT22;10931;52.164;5.518;2023-11-19T01:29:13;14.70;79.00
21540;DHT22;10931;52.164;5.518;2023-11-19T01:32:12;14.70;79.10
21540;DHT22;10931;52.164;5.518;2023-11-19T01:34:48;14.80;79.10
21540;DHT22;10931;52.164;5.518;2023-11-19T01:37:53;14.80;79.10
21540;DHT22;10931;52.164;5.518;2023-11-19T01:40:31;14.80;79.10
21540;DHT22;10931;52.164;5.518;2023-11-19T01:43:07;14.70;79.00
21540;DHT22;10931;52.164;5.518;2023-11-19T01:45:51;14.80;79.10
21540;DHT22;10931;52.164;5.518;2023-11-19T01:48:35;14.80;79.10
21540;DHT22;10931;52.164;5.518;2023-11-19T01:51:45;14.80;79.10
21540;DHT22;10931;52.164;5.518;2023-11-19T01:54:26;14.80;79.10
21540;DHT22;10931;52.164;5.518;2023-11-19T02:15:27;14.80;79.10
21540;DHT22;10931;52.164;5.518;2023-11-19T02:20:40;14.80;79.10
21540;DHT22;10931;52.164;5.518;2023-11-19T03:23:44;14.90;79.20
21540;DHT22;10931;52.164;5.518;2023-11-19T03:26:19;14.90;79.20
21540;DHT22;10931;52.164;5.518;2023-11-19T03:28:55;14.90;79.20
21540;DHT22;10931;52.164;5.518;2023-11-19T03:31:34;14.90;79.20
21540;DHT22;10931;52.164;5.518;2023-11-19T03:34:19;14.90;79.20
21540;DHT22;10931;52.164;5.518;2023-11-19T03:37:07;14.90;79.20
21540;DHT22;10931;52.164;5.518;2023-11-19T03:39:50;14.90;79.20
21540;DHT22;10931;52.164;5.518;2023-11-19T03:45:35;14.90;79.20
21540;DHT22;10931;52.164;5.518;2023-11-19T03:48:25;14.90;79.10
21540;DHT22;10931;52.164;5.518;2023-11-19T03:51:32;14.90;79.20
21540;DHT22;10931;52.164;5.518;2023-11-19T03:54:12;14.90;79.20
21540;DHT22;10931;52.164;5.518;2023-11-19T03:56:42;14.90;79.20
21540;DHT22;10931;52.164;5.518;2023-11-19T03:59:18;14.90;79.10
21540;DHT22;10931;52.164;5.518;2023-11-19T04:02:04;14.90;79.10
21540;DHT22;10931;52.164;5.518;2023-11-19T04:04:40;14.90;79.20
21540;DHT22;10931;52.164;5.518;2023-11-19T04:07:08;14.90;79.10
21540;DHT22;10931;52.164;5.518;2023-11-19T04:09:46;14.90;79.10
21540;DHT22;10931;52.164;5.518;2023-11-19T04:12:19;14.90;79.20
21540;DHT22;10931;52.164;5.518;2023-11-19T04:14:59;14.90;79.10
21540;DHT22;10931;52.164;5.518;2023-11-19T04:17:42;14.90;79.20
21540;DHT22;10931;52.164;5.518;2023-11-19T04:20:11;14.90;79.20
21540;DHT22;10931;52.164;5.518;2023-11-19T04:22:39;14.90;79.10
21540;DHT22;10931;52.164;5.518;2023-11-19T04:28:11;14.90;79.10
21540;DHT22;10931;52.164;5.518;2023-11-19T04:30:57;14.90;79.10
21540;DHT22;10931;52.164;5.518;2023-11-19T04:33:34;14.90;79.10
21540;DHT22;10931;52.164;5.518;2023-11-19T04:36:19;14.90;79.10
21540;DHT22;10931;52.164;5.518;2023-11-19T04:45:03;14.90;79.10
21540;DHT22;10931;52.164;5.518;2023-11-19T04:47:46;14.90;79.10
21540;DHT22;10931;52.164;5.518;2023-11-19T04:50:26;14.90;79.10
21540;DHT22;10931;52.164;5.518;2023-11-19T04:53:14;14.90;79.10
21540;DHT22;10931;52.164;5.518;2023-11-19T04:56:31;15.00;79.10
21540;DHT22;10931;52.164;5.518;2023-11-19T04:58:54;14.90;79.10
21540;DHT22;10931;52.164;5.518;2023-11-19T05:11:48;14.90;79.10
21540;DHT22;10931;52.164;5.518;2023-11-19T05:14:37;14.90;79.10
21540;DHT22;10931;52.164;5.518;2023-11-19T05:17:13;14.90;79.10
21540;DHT22;10931;52.164;5.518;2023-11-19T05:23:34;14.90;79.10
21540;DHT22;10931;52.164;5.518;2023-11-19T05:26:21;14.90;79.10
21540;DHT22;10931;52.164;5.518;2023-11-19T05:29:05;14.90;79.10
21540;DHT22;10931;52.164;5.518;2023-11-19T05:32:21;14.90;79.10
21540;DHT22;10931;52.164;5.518;2023-11-19T05:37:53;14.90;79.10
21540;DHT22;10931;52.164;5.518;2023-11-19T05:40:59;14.90;79.10
21540;DHT22;10931;52.164;5.518;2023-11-19T05:43:48;14.90;79.10
21540;DHT22;10931;52.164;5.518;2023-11-19T09:49:17;15.00;79.20
21540;DHT22;10931;52.164;5.518;2023-11-19T09:54:46;15.00;79.10
21540;DHT22;10931;52.164;5.518;2023-11-19T09:57:38;15.00;79.20
21540;DHT22;10931;52.164;5.518;2023-11-19T10:25:21;15.00;79.20
21540;DHT22;10931;52.164;5.518;2023-11-19T10:28:16;15.10;79.30
21540;DHT22;10931;52.164;5.518;2023-11-19T10:31:07;15.00;79.20
21540;DHT22;10931;52.164;5.518;2023-11-19T10:34:02;15.00;79.20
21540;DHT22;10931;52.164;5.518;2023-11-19T11:06:58;15.10;79.30
21540;DHT22;10931;52.164;5.518;2023-11-19T11:09:36;15.20;79.40
21540;DHT22;10931;52.164;5.518;2023-11-19T11:13:19;15.10;79.30
21540;DHT22;10931;52.164;5.518;2023-11-19T11:15:45;15.20;79.40
21540;DHT22;10931;52.164;5.518;2023-11-19T11:18:39;15.20;79.40
21540;DHT22;10931;52.164;5.518;2023-11-19T11:21:33;15.20;79.40
21540;DHT22;10931;52.164;5.518;2023-11-19T11:34:11;15.20;79.40
21540;DHT22;10931;52.164;5.518;2023-11-19T11:37:37;15.20;79.40
21540;DHT22;10931;52.164;5.518;2023-11-19T11:40:23;15.30;79.40
21540;DHT22;10931;52.164;5.518;2023-11-19T12:07:19;15.30;79.50
21540;DHT22;10931;52.164;5.518;2023-11-19T12:10:10;15.30;79.40
21540;DHT22;10931;52.164;5.518;2023-11-19T12:12:56;15.30;79.50
21540;DHT22;10931;52.164;5.518;2023-11-19T12:15:23;15.40;80.30
21540;DHT22;10931;52.164;5.518;2023-11-19T12:18:00;15.30;79.40
21540;DHT22;10931;52.164;5.518;2023-11-19T12:20:36;15.40;79.50
21540;DHT22;10931;52.164;5.518;2023-11-19T12:23:07;15.40;79.50
21540;DHT22;10931;52.164;5.518;2023-11-19T12:26:02;15.40;79.50
21540;DHT22;10931;52.164;5.518;2023-11-19T12:31:55;15.40;79.50
21540;DHT22;10931;52.164;5.518;2023-11-19T12:34:49;15.40;79.50
21540;DHT22;10931;52.164;5.518;2023-11-19T12:47:06;15.40;79.50
21540;DHT22;10931;52.164;5.518;2023-11-19T12:49:39;15.40;79.50
21540;DHT22;10931;52.164;5.518;2023-11-19T13:12:20;15.50;79.60
21540;DHT22;10931;52.164;5.518;2023-11-19T13:42:22;15.50;79.50
21540;DHT22;10931;52.164;5.518;2023-11-19T13:45:24;15.50;79.60
21540;DHT22;10931;52.164;5.518;2023-11-19T13:48:19;15.50;79.60
21540;DHT22;10931;52.164;5.518;2023-11-19T14:24:39;15.60;79.60
21540;DHT22;10931;52.164;5.518;2023-11-19T14:41:02;15.60;79.50
21540;DHT22;10931;52.164;5.518;2023-11-19T14:44:18;15.60;79.60
21540;DHT22;10931;52.164;5.518;2023-11-19T14:56:53;15.60;79.60
21540;DHT22;10931;52.164;5.518;2023-11-19T14:59:19;15.70;79.60
21540;DHT22;10931;52.164;5.518;2023-11-19T15:01:51;15.70;79.60
21540;DHT22;10931;52.164;5.518;2023-11-19T15:04:36;15.70;79.60
21540;DHT22;10931;52.164;5.518;2023-11-19T15:07:18;15.70;79.60
21540;DHT22;10931;52.164;5.518;2023-11-19T15:22:58;15.70;79.60
21540;DHT22;10931;52.164;5.518;2023-11-19T15:25:49;15.70;79.60
21540;DHT22;10931;52.164;5.518;2023-11-19T16:09:30;15.80;79.60
21540;DHT22;10931;52.164;5.518;2023-11-19T18:05:34;15.80;79.60
21540;DHT22;10931;52.164;5.518;2023-11-19T18:15:09;15.80;79.60
21540;DHT22;10931;52.164;5.518;2023-11-19T18:18:04;15.80;79.60
21540;DHT22;10931;52.164;5.518;2023-11-19T18:23:43;15.80;79.60
21540;DHT22;10931;52.164;5.518;2023-11-19T22:32:52;15.80;79.70
21540;DHT22;10931;52.164;5.518;2023-11-19T22:36:04;15.80;79.70
21540;DHT22;10931;52.164;5.518;2023-11-19T22:39:05;15.80;79.70
21540;DHT22;10931;52.164;5.518;2023-11-19T23:59:05;15.90;79.80
